Time;durP1;ratioP1;P1;durP2;ratioP2;P2;SDS_P1;SDS_P2;PMS_P1;PMS_P2;Temp;Humidity;BMP_temperature;BMP_pressure;BME280_temperature;BME280_humidity;BME280_pressure;Samples;Min_cycle;Max_cycle;Signal;HPM_P1;HPM_P2
2023/11/30 00:00:24;;;;;;;25.58;9.00;;;;;;;;;;5090034;28;20077;-50
2023/11/30 00:02:52;;;;;;;12.65;7.97;;;;;;;;;;5095242;28;20204;-53
2023/11/30 00:05:20;;;;;;;15.23;8.10;;;;;;;;;;5091970;28;20078;-52
2023/11/30 00:07:47;;;;;;;11.57;8.13;;;;;;;;;;5095495;28;20024;-51
2023/11/30 00:10:14;;;;;;;14.98;8.30;;;;;;;;;;5086472;28;20126;-51
2023/11/30 00:12:40;;;;;;;11.77;7.90;;;;;;;;;;5094044;28;20305;-52
2023/11/30 00:15:07;;;;;;;14.88;8.43;;;;;;;;;;5092922;28;20036;-57
2023/11/30 00:17:34;;;;;;;14.10;7.75;;;;;;;;;;5097429;28;20096;-55
2023/11/30 00:20:01;;;;;;;16.52;7.95;;;;;;;;;;5087592;28;20040;-55
2023/11/30 00:22:27;;;;;;;28.60;8.30;;;;;;;;;;5091534;28;20051;-51
2023/11/30 00:24:54;;;;;;;15.60;8.20;;;;;;;;;;5094863;28;20021;-54
2023/11/30 00:27:21;;;;;;;15.27;7.60;;;;;;;;;;5090053;28;20024;-51
2023/11/30 00:29:47;;;;;;;13.07;7.43;;;;;;;;;;5092973;28;20102;-50
2023/11/30 00:32:14;;;;;;;14.25;7.50;;;;;;;;;;5088891;28;20088;-50
2023/11/30 00:34:41;;;;;;;11.20;7.05;;;;;;;;;;5096111;28;20245;-53
2023/11/30 00:37:08;;;;;;;14.48;7.35;;;;;;;;;;5087756;28;20035;-57
2023/11/30 00:39:36;;;;;;;16.33;7.50;;;;;;;;;;5096970;28;20178;-52
2023/11/30 00:42:03;;;;;;;12.32;7.57;;;;;;;;;;5086754;28;20021;-54
2023/11/30 00:44:29;;;;;;;13.18;7.72;;;;;;;;;;5090334;28;20048;-52
2023/11/30 00:46:56;;;;;;;13.52;7.50;;;;;;;;;;5085721;28;20182;-53
2023/11/30 00:49:23;;;;;;;14.20;7.85;;;;;;;;;;5098013;28;20088;-52
2023/11/30 00:51:49;;;;;;;11.77;7.55;;;;;;;;;;5089009;28;20339;-60
2023/11/30 00:54:16;;;;;;;16.65;7.70;;;;;;;;;;5099294;28;20012;-52
2023/11/30 00:56:44;;;;;;;13.45;7.30;;;;;;;;;;5091894;28;20090;-54
2023/11/30 00:59:11;;;;;;;12.73;6.97;;;;;;;;;;5097468;28;20039;-50
2023/11/30 01:01:37;;;;;;;13.77;7.10;;;;;;;;;;5084432;28;20074;-54
2023/11/30 01:04:05;;;;;;;17.02;7.00;;;;;;;;;;5103777;28;20047;-53
2023/11/30 01:06:32;;;;;;;18.52;7.45;;;;;;;;;;5084512;28;20048;-51
2023/11/30 01:09:00;;;;;;;12.73;6.90;;;;;;;;;;5099772;28;20188;-57
2023/11/30 01:11:28;;;;;;;13.73;6.43;;;;;;;;;;5091193;28;20032;-52
2023/11/30 01:13:54;;;;;;;9.77;6.50;;;;;;;;;;5099519;28;20036;-51
2023/11/30 01:16:21;;;;;;;13.60;6.75;;;;;;;;;;5087130;28;20107;-52
2023/11/30 01:18:48;;;;;;;13.07;6.95;;;;;;;;;;5099413;28;20020;-52
2023/11/30 01:21:15;;;;;;;12.80;6.80;;;;;;;;;;5096510;28;20049;-51
2023/11/30 01:23:41;;;;;;;10.82;6.45;;;;;;;;;;5102156;28;20020;-51
2023/11/30 01:26:08;;;;;;;13.35;5.90;;;;;;;;;;5100582;28;20043;-53
2023/11/30 01:28:35;;;;;;;10.35;5.82;;;;;;;;;;5095463;28;20320;-51
2023/11/30 01:31:02;;;;;;;10.65;6.25;;;;;;;;;;5104653;28;20334;-51
2023/11/30 01:33:31;;;;;;;12.65;6.60;;;;;;;;;;5103109;28;20067;-51
2023/11/30 01:35:57;;;;;;;11.98;6.13;;;;;;;;;;5101762;28;20035;-51
2023/11/30 01:38:24;;;;;;;9.95;6.20;;;;;;;;;;5092832;28;20024;-54
2023/11/30 01:40:51;;;;;;;10.52;6.03;;;;;;;;;;5102204;28;20028;-52
2023/11/30 01:43:20;;;;;;;13.50;5.90;;;;;;;;;;5093038;28;20016;-53
2023/11/30 01:45:48;;;;;;;9.05;5.80;;;;;;;;;;5096612;28;20193;-53
2023/11/30 01:48:15;;;;;;;13.23;5.97;;;;;;;;;;5092240;28;20012;-54
2023/11/30 01:50:42;;;;;;;13.20;5.90;;;;;;;;;;5102998;28;20028;-57
2023/11/30 01:53:09;;;;;;;9.52;6.20;;;;;;;;;;5096570;28;20028;-53
2023/11/30 01:55:37;;;;;;;12.43;6.57;;;;;;;;;;5086744;28;20029;-51
2023/11/30 01:58:05;;;;;;;9.20;5.88;;;;;;;;;;5089988;28;20016;-53
2023/11/30 02:00:32;;;;;;;11.60;5.88;;;;;;;;;;5104173;28;20063;-52
2023/11/30 02:02:59;;;;;;;10.63;5.60;;;;;;;;;;5086801;28;20055;-50
2023/11/30 02:05:26;;;;;;;12.35;6.18;;;;;;;;;;5092629;28;20021;-53
2023/11/30 02:07:52;;;;;;;14.85;5.85;;;;;;;;;;5087276;28;20016;-51
2023/11/30 02:10:19;;;;;;;10.80;5.75;;;;;;;;;;5096235;28;20103;-52
2023/11/30 02:12:46;;;;;;;14.98;5.80;;;;;;;;;;5090072;28;20031;-53
2023/11/30 02:15:15;;;;;;;10.25;6.05;;;;;;;;;;5092154;28;20216;-51
2023/11/30 02:17:41;;;;;;;9.05;5.88;;;;;;;;;;5092752;28;20304;-54
2023/11/30 02:20:08;;;;;;;10.20;5.63;;;;;;;;;;5093681;28;20235;-51
2023/11/30 02:22:35;;;;;;;15.15;5.50;;;;;;;;;;5094742;28;20016;-52
2023/11/30 02:25:02;;;;;;;11.45;5.30;;;;;;;;;;5086921;28;20309;-53
2023/11/30 02:27:28;;;;;;;9.68;5.43;;;;;;;;;;5083524;28;20020;-53
2023/11/30 02:29:55;;;;;;;8.48;5.45;;;;;;;;;;5099431;28;20020;-53
2023/11/30 02:32:27;;;;;;;9.73;5.78;;;;;;;;;;5092932;28;20016;-51
2023/11/30 02:34:53;;;;;;;17.85;5.15;;;;;;;;;;5098620;28;20078;-52
2023/11/30 02:37:22;;;;;;;15.98;5.65;;;;;;;;;;5095834;28;20493;-50
2023/11/30 02:39:49;;;;;;;13.60;5.75;;;;;;;;;;5096196;28;20224;-54
2023/11/30 02:42:16;;;;;;;9.73;5.55;;;;;;;;;;5086151;28;20088;-56
2023/11/30 02:44:44;;;;;;;12.27;5.80;;;;;;;;;;5086280;28;20427;-53
2023/11/30 02:47:10;;;;;;;10.57;5.65;;;;;;;;;;5094103;28;20269;-49
2023/11/30 02:49:37;;;;;;;9.48;5.45;;;;;;;;;;5102227;28;20035;-59
2023/11/30 02:52:04;;;;;;;10.45;5.70;;;;;;;;;;5099104;28;20094;-52
2023/11/30 02:54:31;;;;;;;8.32;5.75;;;;;;;;;;5086640;28;20027;-52
2023/11/30 02:56:57;;;;;;;11.45;5.65;;;;;;;;;;5086682;28;20131;-51
2023/11/30 02:59:24;;;;;;;10.57;5.65;;;;;;;;;;5086129;28;20012;-53
2023/11/30 03:01:51;;;;;;;8.38;5.10;;;;;;;;;;5097876;28;20021;-57
2023/11/30 03:04:17;;;;;;;9.55;5.45;;;;;;;;;;5095276;28;20250;-51
2023/11/30 03:06:49;;;;;;;10.30;5.43;;;;;;;;;;5105365;28;20027;-54
2023/11/30 03:09:19;;;;;;;10.57;5.38;;;;;;;;;;5106393;28;20326;-50
2023/11/30 03:11:46;;;;;;;10.18;4.75;;;;;;;;;;5106225;28;20028;-52
2023/11/30 03:14:13;;;;;;;7.45;4.55;;;;;;;;;;5107511;28;20023;-51
2023/11/30 03:16:41;;;;;;;9.50;5.47;;;;;;;;;;5106529;28;20016;-51
2023/11/30 03:19:07;;;;;;;8.88;5.45;;;;;;;;;;5106230;28;20047;-53
2023/11/30 03:21:34;;;;;;;10.90;6.82;;;;;;;;;;5106000;28;20056;-52
2023/11/30 03:24:02;;;;;;;16.30;7.93;;;;;;;;;;5106369;28;20028;-50
2023/11/30 03:26:28;;;;;;;10.10;7.10;;;;;;;;;;5106703;28;20094;-56
2023/11/30 03:28:55;;;;;;;13.60;6.97;;;;;;;;;;5106508;28;20083;-51
2023/11/30 03:31:22;;;;;;;13.32;7.00;;;;;;;;;;5106441;28;20024;-54
2023/11/30 03:33:49;;;;;;;13.05;6.25;;;;;;;;;;5098851;28;20032;-55
2023/11/30 03:36:15;;;;;;;10.05;5.60;;;;;;;;;;5091489;28;20040;-46
2023/11/30 03:38:42;;;;;;;11.82;5.43;;;;;;;;;;5085659;28;20381;-54
2023/11/30 03:41:09;;;;;;;11.70;5.53;;;;;;;;;;5085981;28;20105;-53
2023/11/30 03:43:37;;;;;;;9.93;5.80;;;;;;;;;;5085569;28;20027;-51
2023/11/30 03:46:05;;;;;;;12.15;5.50;;;;;;;;;;5085403;28;20024;-49
2023/11/30 03:48:31;;;;;;;10.88;5.47;;;;;;;;;;5085371;28;20088;-46
2023/11/30 03:51:01;;;;;;;13.82;5.65;;;;;;;;;;5097571;28;20026;-47
2023/11/30 03:53:27;;;;;;;9.35;5.45;;;;;;;;;;5097861;28;20054;-53
2023/11/30 03:55:54;;;;;;;11.73;5.70;;;;;;;;;;5104060;28;20051;-47
2023/11/30 03:58:20;;;;;;;8.15;5.07;;;;;;;;;;5105746;28;20065;-49
2023/11/30 04:00:47;;;;;;;9.85;5.22;;;;;;;;;;5103942;28;20097;-51
2023/11/30 04:03:14;;;;;;;11.65;5.63;;;;;;;;;;5103606;28;20020;-55
2023/11/30 04:05:40;;;;;;;9.57;5.25;;;;;;;;;;5103713;28;20057;-52
2023/11/30 04:08:07;;;;;;;10.60;5.32;;;;;;;;;;5103496;28;20024;-50
2023/11/30 04:10:34;;;;;;;9.95;5.05;;;;;;;;;;5104078;28;20066;-45
2023/11/30 04:13:00;;;;;;;11.52;4.82;;;;;;;;;;5104016;28;20040;-49
2023/11/30 04:15:27;;;;;;;9.45;5.45;;;;;;;;;;5104870;28;20381;-48
2023/11/30 04:17:54;;;;;;;10.00;4.30;;;;;;;;;;5105117;28;20239;-51
2023/11/30 04:20:21;;;;;;;9.55;4.75;;;;;;;;;;5104735;28;20051;-47
2023/11/30 04:22:48;;;;;;;10.38;4.70;;;;;;;;;;5104949;28;20024;-48
2023/11/30 04:25:14;;;;;;;8.18;4.70;;;;;;;;;;5105236;28;20039;-48
2023/11/30 04:27:41;;;;;;;7.57;4.88;;;;;;;;;;5104797;28;20242;-49
2023/11/30 04:30:08;;;;;;;8.18;4.30;;;;;;;;;;5105052;28;20036;-48
2023/11/30 04:32:35;;;;;;;8.45;5.03;;;;;;;;;;5104800;28;20031;-50
2023/11/30 04:35:01;;;;;;;8.82;4.80;;;;;;;;;;5105022;28;20066;-51
2023/11/30 04:37:28;;;;;;;9.25;4.82;;;;;;;;;;5105181;28;20027;-50
2023/11/30 04:39:55;;;;;;;9.80;4.40;;;;;;;;;;5104820;28;20120;-49
2023/11/30 04:42:21;;;;;;;8.82;4.57;;;;;;;;;;5104538;28;20043;-50
2023/11/30 04:44:48;;;;;;;8.18;4.65;;;;;;;;;;5104646;28;20300;-49
2023/11/30 04:47:15;;;;;;;7.25;4.60;;;;;;;;;;5104672;28;20039;-49
2023/11/30 04:49:42;;;;;;;8.27;4.10;;;;;;;;;;5104383;28;20027;-48
2023/11/30 04:52:08;;;;;;;6.80;4.40;;;;;;;;;;5104286;28;20079;-47
2023/11/30 04:54:35;;;;;;;6.78;4.00;;;;;;;;;;5104444;28;20074;-47
2023/11/30 04:57:02;;;;;;;13.15;4.53;;;;;;;;;;5104296;28;20141;-49
2023/11/30 04:59:37;;;;;;;8.40;4.20;;;;;;;;;;5104481;28;20427;-50
2023/11/30 05:02:04;;;;;;;9.15;4.40;;;;;;;;;;5104433;28;20031;-48
2023/11/30 05:04:31;;;;;;;10.55;4.35;;;;;;;;;;5104219;28;20020;-47
2023/11/30 05:06:58;;;;;;;7.65;4.07;;;;;;;;;;5104553;28;20027;-46
2023/11/30 05:09:24;;;;;;;8.07;3.97;;;;;;;;;;5104152;28;20043;-44
2023/11/30 05:11:51;;;;;;;15.20;4.03;;;;;;;;;;5104041;28;20024;-49
2023/11/30 05:14:18;;;;;;;8.63;3.80;;;;;;;;;;5104220;28;20040;-49
2023/11/30 05:16:44;;;;;;;8.77;4.63;;;;;;;;;;5104147;28;20043;-44
2023/11/30 05:19:11;;;;;;;9.48;4.45;;;;;;;;;;5103973;28;20031;-51
2023/11/30 05:21:38;;;;;;;6.72;3.90;;;;;;;;;;5103945;28;20048;-47
2023/11/30 05:24:04;;;;;;;6.10;3.92;;;;;;;;;;5104122;28;20023;-45
2023/11/30 05:26:31;;;;;;;7.35;4.43;;;;;;;;;;5104440;28;20032;-46
2023/11/30 05:28:58;;;;;;;6.80;4.43;;;;;;;;;;5103995;28;20087;-47
2023/11/30 05:31:26;;;;;;;15.52;4.70;;;;;;;;;;5103946;28;20024;-46
2023/11/30 05:33:52;;;;;;;13.60;4.85;;;;;;;;;;5104119;28;20074;-46
2023/11/30 05:36:19;;;;;;;8.80;4.10;;;;;;;;;;5104460;28;20040;-49
2023/11/30 05:38:46;;;;;;;7.32;4.00;;;;;;;;;;5104073;28;20016;-49
2023/11/30 05:41:12;;;;;;;7.38;4.28;;;;;;;;;;5104194;28;20322;-53
2023/11/30 05:43:39;;;;;;;8.70;4.30;;;;;;;;;;5104068;28;20036;-46
2023/11/30 05:46:06;;;;;;;8.98;4.20;;;;;;;;;;5104330;28;20027;-47
2023/11/30 05:48:33;;;;;;;6.78;4.45;;;;;;;;;;5103788;28;20020;-52
2023/11/30 05:51:00;;;;;;;10.02;4.47;;;;;;;;;;5104364;28;20044;-49
2023/11/30 05:53:26;;;;;;;9.95;4.35;;;;;;;;;;5103946;28;20016;-48
2023/11/30 05:55:53;;;;;;;7.68;4.40;;;;;;;;;;5104838;28;20036;-48
2023/11/30 05:58:33;;;;;;;6.32;3.80;;;;;;;;;;5104997;28;20028;-48
2023/11/30 06:01:00;;;;;;;7.32;4.10;;;;;;;;;;5104374;28;20028;-45
2023/11/30 06:03:27;;;;;;;6.68;4.07;;;;;;;;;;5105805;28;20227;-54
2023/11/30 06:05:53;;;;;;;7.78;4.40;;;;;;;;;;5108102;28;20040;-47
2023/11/30 06:08:20;;;;;;;10.75;4.28;;;;;;;;;;5107616;28;20016;-51
2023/11/30 06:10:47;;;;;;;9.43;4.07;;;;;;;;;;5107788;28;20040;-47
2023/11/30 06:13:15;;;;;;;9.38;4.32;;;;;;;;;;5107580;28;20027;-50
2023/11/30 06:15:42;;;;;;;7.18;3.97;;;;;;;;;;5107462;28;20043;-48
2023/11/30 06:18:08;;;;;;;8.05;4.65;;;;;;;;;;5107327;28;20032;-54
2023/11/30 06:20:35;;;;;;;7.30;4.40;;;;;;;;;;5107173;28;20036;-50
2023/11/30 06:23:03;;;;;;;8.90;4.40;;;;;;;;;;5107438;28;20220;-50
2023/11/30 06:25:29;;;;;;;11.63;4.30;;;;;;;;;;5107537;28;20038;-53
2023/11/30 06:27:57;;;;;;;7.90;4.13;;;;;;;;;;5107257;28;20331;-50
2023/11/30 06:30:24;;;;;;;9.40;4.57;;;;;;;;;;5107413;28;20133;-49
2023/11/30 06:32:51;;;;;;;9.63;4.60;;;;;;;;;;5106997;28;20051;-49
2023/11/30 06:35:17;;;;;;;11.98;4.70;;;;;;;;;;5107446;28;20024;-55
2023/11/30 06:37:45;;;;;;;18.40;4.35;;;;;;;;;;5107047;28;20271;-55
2023/11/30 06:40:12;;;;;;;6.93;4.30;;;;;;;;;;5107042;28;20056;-49
2023/11/30 06:42:39;;;;;;;8.23;4.28;;;;;;;;;;5107093;28;20047;-52
2023/11/30 06:45:06;;;;;;;6.80;4.15;;;;;;;;;;5107084;28;20081;-49
2023/11/30 06:47:32;;;;;;;8.20;4.72;;;;;;;;;;5106780;28;20032;-49
2023/11/30 06:49:59;;;;;;;9.73;4.70;;;;;;;;;;5106921;28;20020;-49
2023/11/30 06:52:26;;;;;;;9.98;4.80;;;;;;;;;;5106744;28;20035;-49
2023/11/30 06:54:53;;;;;;;11.73;4.47;;;;;;;;;;5106765;28;20303;-53
2023/11/30 06:57:20;;;;;;;9.52;4.22;;;;;;;;;;5106658;28;20039;-50
2023/11/30 06:59:46;;;;;;;7.43;4.20;;;;;;;;;;5106541;28;20065;-51
2023/11/30 07:02:13;;;;;;;9.45;4.20;;;;;;;;;;5097386;28;20020;-50
2023/11/30 07:04:40;;;;;;;10.32;4.15;;;;;;;;;;5102368;28;20028;-50
2023/11/30 07:07:06;;;;;;;5.60;4.00;;;;;;;;;;5106529;28;20319;-47
2023/11/30 07:09:33;;;;;;;7.07;3.88;;;;;;;;;;5106548;28;20036;-47
2023/11/30 07:12:00;;;;;;;6.18;4.15;;;;;;;;;;5106258;28;20211;-46
2023/11/30 07:14:26;;;;;;;7.38;4.05;;;;;;;;;;5105943;28;20058;-49
2023/11/30 07:16:53;;;;;;;9.10;4.20;;;;;;;;;;5106368;28;20406;-45
2023/11/30 07:19:20;;;;;;;8.32;4.07;;;;;;;;;;5106005;28;20039;-45
2023/11/30 07:21:49;;;;;;;8.05;4.03;;;;;;;;;;5106209;28;20028;-48
2023/11/30 07:24:16;;;;;;;9.75;4.03;;;;;;;;;;5106331;28;20020;-48
2023/11/30 07:26:43;;;;;;;8.27;4.20;;;;;;;;;;5105974;28;20026;-50
2023/11/30 07:29:09;;;;;;;7.03;4.05;;;;;;;;;;5105954;28;20095;-51
2023/11/30 07:31:36;;;;;;;9.07;4.43;;;;;;;;;;5106010;28;20028;-52
2023/11/30 07:34:04;;;;;;;10.65;4.57;;;;;;;;;;5106108;28;20181;-51
2023/11/30 07:36:31;;;;;;;6.75;3.78;;;;;;;;;;5106394;28;20024;-51
2023/11/30 07:38:57;;;;;;;9.40;4.45;;;;;;;;;;5105951;28;20042;-54
2023/11/30 07:41:24;;;;;;;8.02;4.43;;;;;;;;;;5106073;28;20023;-53
2023/11/30 07:43:51;;;;;;;7.00;4.05;;;;;;;;;;5105741;28;20286;-53
2023/11/30 07:46:17;;;;;;;14.13;4.13;;;;;;;;;;5106186;28;20024;-52
2023/11/30 07:48:44;;;;;;;11.23;4.40;;;;;;;;;;5105731;28;20020;-53
2023/11/30 07:51:11;;;;;;;4.93;3.83;;;;;;;;;;5105939;28;20027;-52
2023/11/30 07:53:37;;;;;;;8.07;4.55;;;;;;;;;;5105655;28;20032;-53
2023/11/30 07:56:04;;;;;;;11.32;4.43;;;;;;;;;;5105787;28;20077;-53
2023/11/30 07:58:31;;;;;;;7.97;4.45;;;;;;;;;;5105599;28;20028;-53
2023/11/30 08:00:57;;;;;;;15.38;4.80;;;;;;;;;;5105864;28;20224;-53
2023/11/30 08:03:24;;;;;;;8.90;4.22;;;;;;;;;;5105340;28;20253;-53
2023/11/30 08:05:51;;;;;;;8.65;3.92;;;;;;;;;;5105785;28;20051;-53
2023/11/30 08:08:18;;;;;;;12.57;4.07;;;;;;;;;;5105305;28;20340;-47
2023/11/30 08:10:45;;;;;;;9.50;3.97;;;;;;;;;;5105453;28;20020;-43
2023/11/30 08:13:13;;;;;;;9.38;4.30;;;;;;;;;;5105170;28;20019;-47
2023/11/30 08:15:39;;;;;;;7.85;4.35;;;;;;;;;;5105563;28;20316;-47
2023/11/30 08:18:07;;;;;;;6.85;4.07;;;;;;;;;;5104944;28;20030;-50
2023/11/30 08:20:35;;;;;;;8.55;4.22;;;;;;;;;;5104660;28;20213;-48
2023/11/30 08:23:02;;;;;;;8.20;4.35;;;;;;;;;;5104991;28;20020;-51
2023/11/30 08:25:29;;;;;;;6.85;4.20;;;;;;;;;;5104391;28;20054;-51
2023/11/30 08:27:56;;;;;;;7.57;3.72;;;;;;;;;;5105201;28;20027;-50
2023/11/30 08:30:23;;;;;;;7.03;4.03;;;;;;;;;;5105171;28;20036;-45
2023/11/30 08:32:50;;;;;;;8.02;4.50;;;;;;;;;;5104791;28;20075;-49
2023/11/30 08:35:17;;;;;;;6.22;3.92;;;;;;;;;;5104955;28;20051;-52
2023/11/30 08:37:44;;;;;;;8.25;4.25;;;;;;;;;;5104716;28;20027;-48
2023/11/30 08:40:11;;;;;;;5.25;3.78;;;;;;;;;;5104750;28;20024;-51
2023/11/30 08:42:37;;;;;;;8.05;3.95;;;;;;;;;;5104810;28;20020;-50
2023/11/30 08:45:05;;;;;;;5.88;4.07;;;;;;;;;;5104633;28;20070;-49
2023/11/30 08:47:31;;;;;;;8.60;3.90;;;;;;;;;;5104429;28;20022;-46
2023/11/30 08:49:58;;;;;;;6.68;3.90;;;;;;;;;;5104538;28;20024;-49
2023/11/30 08:52:25;;;;;;;9.05;3.60;;;;;;;;;;5104761;28;20303;-46
2023/11/30 08:54:55;;;;;;;8.90;3.85;;;;;;;;;;5104530;28;20036;-49
2023/11/30 08:57:22;;;;;;;13.35;4.00;;;;;;;;;;5104691;28;20208;-47
2023/11/30 08:59:49;;;;;;;9.60;3.80;;;;;;;;;;5104604;28;20364;-49
2023/11/30 09:02:16;;;;;;;7.60;3.78;;;;;;;;;;5104188;28;20062;-48
2023/11/30 09:04:42;;;;;;;6.82;3.67;;;;;;;;;;5104547;28;20088;-49
2023/11/30 09:07:09;;;;;;;5.70;3.20;;;;;;;;;;5104252;28;20031;-47
2023/11/30 09:09:36;;;;;;;7.75;3.40;;;;;;;;;;5104177;28;20020;-52
2023/11/30 09:12:03;;;;;;;7.80;3.33;;;;;;;;;;5104207;28;20028;-51
2023/11/30 09:14:32;;;;;;;7.32;3.35;;;;;;;;;;5104199;28;20339;-51
2023/11/30 09:16:59;;;;;;;6.78;3.70;;;;;;;;;;5103967;28;20031;-50
2023/11/30 09:19:26;;;;;;;8.30;3.70;;;;;;;;;;5103946;28;20121;-48
2023/11/30 09:21:53;;;;;;;6.97;4.00;;;;;;;;;;5104161;28;20039;-47
2023/11/30 09:24:21;;;;;;;5.95;3.33;;;;;;;;;;5103927;28;20020;-53
2023/11/30 09:26:51;;;;;;;7.72;3.70;;;;;;;;;;5104174;28;20024;-47
2023/11/30 09:29:18;;;;;;;7.22;3.38;;;;;;;;;;5103923;28;20016;-46
2023/11/30 09:31:48;;;;;;;6.25;3.42;;;;;;;;;;5103823;28;20028;-51
2023/11/30 09:34:15;;;;;;;7.23;3.77;;;;;;;;;;5104184;28;20043;-46
2023/11/30 09:36:42;;;;;;;8.60;3.53;;;;;;;;;;5105016;28;20039;-47
2023/11/30 09:39:09;;;;;;;9.00;3.63;;;;;;;;;;5106834;28;20020;-47
2023/11/30 09:41:38;;;;;;;9.30;3.45;;;;;;;;;;5108114;28;20343;-47
2023/11/30 09:44:06;;;;;;;8.65;3.40;;;;;;;;;;5108230;28;20024;-50
2023/11/30 09:46:33;;;;;;;7.63;3.55;;;;;;;;;;5108476;28;20020;-47
2023/11/30 09:49:00;;;;;;;7.55;3.72;;;;;;;;;;5108131;28;20043;-49
2023/11/30 09:51:28;;;;;;;6.90;3.72;;;;;;;;;;5108383;28;20295;-53
2023/11/30 09:53:57;;;;;;;8.00;3.53;;;;;;;;;;5107831;28;20251;-48
2023/11/30 09:56:27;;;;;;;6.85;3.70;;;;;;;;;;5107262;28;20031;-49
2023/11/30 09:58:56;;;;;;;6.63;3.38;;;;;;;;;;5098810;28;20032;-48
2023/11/30 10:01:24;;;;;;;6.15;3.40;;;;;;;;;;5087732;28;20039;-51
2023/11/30 10:03:51;;;;;;;7.97;3.20;;;;;;;;;;5087425;28;20034;-49
2023/11/30 10:06:18;;;;;;;7.70;3.85;;;;;;;;;;5087755;28;20287;-49
2023/11/30 10:08:44;;;;;;;10.13;3.70;;;;;;;;;;5087229;28;20087;-49
2023/11/30 10:11:12;;;;;;;18.20;4.30;;;;;;;;;;5088082;28;20087;-46
2023/11/30 10:13:39;;;;;;;10.88;4.53;;;;;;;;;;5087428;28;20024;-46
2023/11/30 10:16:06;;;;;;;12.98;4.50;;;;;;;;;;5086882;28;20028;-46
2023/11/30 10:18:34;;;;;;;18.73;4.75;;;;;;;;;;5087100;28;20028;-46
2023/11/30 10:21:04;;;;;;;10.93;4.80;;;;;;;;;;5086699;28;20076;-48
2023/11/30 10:23:32;;;;;;;11.07;4.85;;;;;;;;;;5086875;28;20087;-50
2023/11/30 10:26:02;;;;;;;14.13;4.50;;;;;;;;;;5087312;28;20028;-50
2023/11/30 10:28:30;;;;;;;10.80;4.47;;;;;;;;;;5086959;28;20062;-47
2023/11/30 10:31:02;;;;;;;13.52;5.13;;;;;;;;;;5087164;28;20035;-48
2023/11/30 10:33:30;;;;;;;9.93;4.65;;;;;;;;;;5086820;28;20067;-49
2023/11/30 10:36:01;;;;;;;9.45;4.63;;;;;;;;;;5087068;28;20048;-51
2023/11/30 10:38:29;;;;;;;12.93;4.45;;;;;;;;;;5086862;28;20024;-48
2023/11/30 10:40:56;;;;;;;11.48;4.47;;;;;;;;;;5085876;28;20070;-50
2023/11/30 10:43:24;;;;;;;10.60;4.15;;;;;;;;;;5086821;28;20311;-45
2023/11/30 10:45:57;;;;;;;10.07;4.10;;;;;;;;;;5086930;28;20039;-48
2023/11/30 10:48:25;;;;;;;8.23;3.85;;;;;;;;;;5085834;28;20181;-48
2023/11/30 10:50:52;;;;;;;10.13;4.80;;;;;;;;;;5086668;28;20029;-46
2023/11/30 10:53:24;;;;;;;7.57;3.97;;;;;;;;;;5086439;28;20045;-46
2023/11/30 10:55:51;;;;;;;8.88;3.95;;;;;;;;;;5086942;28;20327;-46
2023/11/30 10:58:24;;;;;;;10.32;4.05;;;;;;;;;;5086426;28;20035;-46
2023/11/30 11:00:58;;;;;;;9.90;4.40;;;;;;;;;;5090939;28;20077;-51
2023/11/30 11:03:24;;;;;;;10.10;4.43;;;;;;;;;;5105150;28;20247;-51
2023/11/30 11:05:52;;;;;;;12.40;4.78;;;;;;;;;;5107138;28;20047;-50
2023/11/30 11:08:19;;;;;;;12.45;4.78;;;;;;;;;;5106885;28;20024;-53
2023/11/30 11:10:50;;;;;;;13.63;5.80;;;;;;;;;;5100891;28;20325;-50
2023/11/30 11:13:28;;;;;;;12.95;5.53;;;;;;;;;;5095229;28;20023;-47
2023/11/30 11:16:02;;;;;;;13.10;5.97;;;;;;;;;;5094955;28;20028;-54
2023/11/30 11:18:32;;;;;;;13.52;6.38;;;;;;;;;;5095368;28;20058;-51
2023/11/30 11:21:01;;;;;;;10.45;6.03;;;;;;;;;;5094834;28;20040;-54
2023/11/30 11:23:41;;;;;;;13.18;6.15;;;;;;;;;;5095236;28;20019;-52
2023/11/30 11:26:08;;;;;;;14.95;6.68;;;;;;;;;;5096513;28;20030;-52
2023/11/30 11:28:36;;;;;;;18.45;6.25;;;;;;;;;;5094581;28;20321;-51
2023/11/30 11:31:02;;;;;;;13.18;5.55;;;;;;;;;;5096385;28;20062;-52
2023/11/30 11:33:30;;;;;;;12.90;5.28;;;;;;;;;;5096334;28;20274;-52
2023/11/30 11:35:57;;;;;;;15.63;5.82;;;;;;;;;;5091940;28;20040;-53
2023/11/30 11:38:24;;;;;;;17.58;6.05;;;;;;;;;;5085816;28;20019;-51
2023/11/30 11:40:52;;;;;;;10.07;5.15;;;;;;;;;;5086055;28;20209;-51
2023/11/30 11:43:18;;;;;;;17.42;5.63;;;;;;;;;;5085719;28;20204;-51
2023/11/30 11:45:45;;;;;;;13.40;5.20;;;;;;;;;;5086325;28;20058;-52
2023/11/30 11:48:12;;;;;;;11.77;5.10;;;;;;;;;;5085608;28;20208;-53
2023/11/30 11:50:39;;;;;;;12.18;5.07;;;;;;;;;;5086214;28;20044;-54
2023/11/30 11:53:06;;;;;;;15.85;5.53;;;;;;;;;;5085744;28;20023;-52
2023/11/30 11:55:33;;;;;;;9.38;4.55;;;;;;;;;;5084616;28;20029;-51
2023/11/30 11:57:59;;;;;;;12.10;5.15;;;;;;;;;;5083581;28;20036;-54
2023/11/30 12:00:26;;;;;;;10.15;4.60;;;;;;;;;;5082765;28;20029;-51
2023/11/30 12:03:07;;;;;;;13.40;4.25;;;;;;;;;;5083605;28;20029;-51
2023/11/30 12:05:34;;;;;;;7.95;4.03;;;;;;;;;;5083521;28;20036;-51
2023/11/30 12:08:01;;;;;;;9.77;4.70;;;;;;;;;;5083453;28;20062;-53
2023/11/30 12:10:32;;;;;;;7.53;4.00;;;;;;;;;;5084453;28;20096;-52
2023/11/30 12:13:03;;;;;;;11.35;4.70;;;;;;;;;;5085368;28;20016;-51
2023/11/30 12:15:30;;;;;;;9.52;4.45;;;;;;;;;;5086065;28;20052;-52
2023/11/30 12:17:57;;;;;;;8.45;4.20;;;;;;;;;;5085107;28;20327;-51
2023/11/30 12:20:25;;;;;;;9.32;4.75;;;;;;;;;;5084667;28;20539;-53
2023/11/30 12:22:51;;;;;;;11.25;4.90;;;;;;;;;;5085141;28;20021;-56
2023/11/30 12:25:18;;;;;;;7.65;4.35;;;;;;;;;;5085229;28;20047;-54
2023/11/30 12:27:45;;;;;;;9.82;4.63;;;;;;;;;;5085380;28;20012;-53
2023/11/30 12:30:12;;;;;;;10.95;4.57;;;;;;;;;;5085090;28;20300;-52
2023/11/30 12:32:39;;;;;;;8.55;4.32;;;;;;;;;;5085223;28;20036;-52
2023/11/30 12:35:07;;;;;;;8.65;5.60;;;;;;;;;;5084993;28;20026;-51
2023/11/30 12:37:36;;;;;;;7.28;4.85;;;;;;;;;;5085394;28;20024;-52
2023/11/30 12:40:03;;;;;;;7.72;4.32;;;;;;;;;;5085294;28;20055;-53
2023/11/30 12:42:30;;;;;;;7.97;4.47;;;;;;;;;;5085110;28;20012;-52
2023/11/30 12:44:57;;;;;;;7.13;4.60;;;;;;;;;;5085083;28;20020;-52
2023/11/30 12:47:25;;;;;;;9.05;4.45;;;;;;;;;;5085263;28;20301;-52
2023/11/30 12:49:51;;;;;;;17.83;4.78;;;;;;;;;;5084807;28;20031;-54
2023/11/30 12:52:20;;;;;;;10.80;4.88;;;;;;;;;;5084826;28;20040;-53
2023/11/30 12:54:47;;;;;;;8.40;4.38;;;;;;;;;;5085211;28;20028;-56
2023/11/30 12:57:14;;;;;;;8.27;4.35;;;;;;;;;;5084612;28;20042;-53
2023/11/30 12:59:40;;;;;;;9.75;4.28;;;;;;;;;;5084863;28;20091;-51
2023/11/30 13:02:07;;;;;;;9.85;4.85;;;;;;;;;;5084769;28;20074;-52
2023/11/30 13:04:34;;;;;;;13.57;4.68;;;;;;;;;;5084520;28;20017;-52
2023/11/30 13:07:01;;;;;;;7.63;4.28;;;;;;;;;;5084456;28;20047;-51
2023/11/30 13:09:32;;;;;;;9.93;4.43;;;;;;;;;;5084795;28;20367;-52
2023/11/30 13:12:01;;;;;;;8.73;4.43;;;;;;;;;;5084102;28;20078;-51
2023/11/30 13:14:30;;;;;;;7.55;4.07;;;;;;;;;;5084687;28;20028;-51
2023/11/30 13:16:57;;;;;;;11.95;4.78;;;;;;;;;;5084826;28;20029;-52
2023/11/30 13:19:23;;;;;;;7.70;4.43;;;;;;;;;;5084326;28;20097;-51
2023/11/30 13:21:52;;;;;;;8.10;4.65;;;;;;;;;;5084605;28;20049;-52
2023/11/30 13:24:19;;;;;;;10.77;4.07;;;;;;;;;;5084505;28;20302;-54
2023/11/30 13:26:47;;;;;;;10.30;4.00;;;;;;;;;;5084782;28;20056;-51
2023/11/30 13:29:15;;;;;;;11.18;4.75;;;;;;;;;;5084480;28;20021;-52
2023/11/30 13:31:41;;;;;;;13.52;4.57;;;;;;;;;;5084171;28;20029;-54
2023/11/30 13:34:08;;;;;;;13.65;4.75;;;;;;;;;;5084574;28;20021;-52
2023/11/30 13:36:35;;;;;;;9.07;4.43;;;;;;;;;;5084628;28;20063;-52
2023/11/30 13:39:04;;;;;;;8.85;4.28;;;;;;;;;;5084313;28;20033;-56
2023/11/30 13:41:31;;;;;;;11.77;4.43;;;;;;;;;;5085013;28;20025;-53
2023/11/30 13:43:58;;;;;;;9.68;4.30;;;;;;;;;;5084218;28;20024;-55
2023/11/30 13:46:25;;;;;;;8.00;4.60;;;;;;;;;;5085040;28;20016;-56
2023/11/30 13:48:51;;;;;;;9.38;4.68;;;;;;;;;;5084404;28;20043;-52
2023/11/30 13:51:19;;;;;;;10.75;4.63;;;;;;;;;;5084465;28;20093;-52
2023/11/30 13:53:46;;;;;;;8.20;4.70;;;;;;;;;;5083768;28;20036;-52
2023/11/30 13:56:14;;;;;;;6.43;4.60;;;;;;;;;;5082796;28;20054;-51
2023/11/30 13:58:41;;;;;;;10.10;4.50;;;;;;;;;;5083712;28;20028;-53
2023/11/30 14:01:09;;;;;;;9.18;4.82;;;;;;;;;;5084277;28;20091;-53
2023/11/30 14:03:37;;;;;;;8.73;4.35;;;;;;;;;;5084285;28;20032;-52
2023/11/30 14:06:04;;;;;;;8.63;4.78;;;;;;;;;;5084613;28;20059;-52
2023/11/30 14:08:31;;;;;;;9.43;4.32;;;;;;;;;;5083689;28;20032;-52
2023/11/30 14:10:58;;;;;;;18.25;4.57;;;;;;;;;;5084825;28;20308;-53
2023/11/30 14:13:24;;;;;;;7.57;4.50;;;;;;;;;;5084428;28;20032;-51
2023/11/30 14:15:51;;;;;;;14.63;4.70;;;;;;;;;;5083969;28;20021;-53
2023/11/30 14:18:18;;;;;;;12.75;4.72;;;;;;;;;;5083924;28;20040;-51
2023/11/30 14:20:45;;;;;;;8.65;4.50;;;;;;;;;;5083743;28;20051;-53
2023/11/30 14:23:11;;;;;;;9.20;4.47;;;;;;;;;;5084361;28;20082;-51
2023/11/30 14:25:38;;;;;;;10.48;4.72;;;;;;;;;;5088206;28;20039;-53
2023/11/30 14:28:06;;;;;;;10.35;4.50;;;;;;;;;;5087977;28;20035;-50
2023/11/30 14:30:35;;;;;;;9.25;4.32;;;;;;;;;;5088183;28;20043;-53
2023/11/30 14:33:01;;;;;;;9.25;4.57;;;;;;;;;;5087870;28;20024;-51
2023/11/30 14:35:28;;;;;;;14.20;4.47;;;;;;;;;;5087792;28;20035;-52